Time;durP1;ratioP1;P1;durP2;ratioP2;P2;SDS_P1;SDS_P2;PMS_P1;PMS_P2;Temp;Humidity;BMP_temperature;BMP_pressure;BME280_temperature;BME280_humidity;BME280_pressure;Samples;Min_cycle;Max_cycle;Signal;HPM_P1;HPM_P2
2023/12/02 00:01:38;;;;;;;4.23;3.33;;;15.50;61.90;16.20;100045.00;;;;5012610;28;1042574;-45
2023/12/02 00:04:04;;;;;;;4.10;3.30;;;15.50;62.00;16.20;100038.00;;;;5048820;28;20556;-45
2023/12/02 00:06:30;;;;;;;3.30;3.00;;;15.40;61.80;16.20;100039.00;;;;5049549;28;20213;-46
2023/12/02 00:08:55;;;;;;;3.70;3.40;;;15.40;61.80;16.20;100044.00;;;;5049174;28;20275;-46
2023/12/02 00:11:21;;;;;;;3.57;3.27;;;15.40;61.90;16.20;100034.00;;;;5049191;28;20804;-46
2023/12/02 00:13:47;;;;;;;3.60;3.30;;;15.40;62.10;16.20;100043.00;;;;5049243;28;20248;-45
2023/12/02 00:16:13;;;;;;;3.40;3.20;;;15.40;62.00;16.20;100045.00;;;;5055045;28;20233;-59
2023/12/02 00:18:39;;;;;;;4.53;3.23;;;15.30;62.00;16.10;100029.00;;;;5055713;28;20174;-48
2023/12/02 00:21:05;;;;;;;3.53;3.23;;;15.30;62.00;16.10;100038.00;;;;5049598;28;20178;-45
2023/12/02 00:23:31;;;;;;;3.27;3.07;;;15.30;62.00;16.10;100038.00;;;;5048120;28;20252;-45
2023/12/02 00:25:58;;;;;;;3.70;3.40;;;15.30;61.90;16.10;100036.00;;;;5049072;28;20179;-46
2023/12/02 00:28:24;;;;;;;3.43;3.13;;;15.30;62.00;16.10;100032.00;;;;5049192;28;20714;-46
2023/12/02 00:30:50;;;;;;;3.23;3.03;;;15.30;62.00;16.10;100037.00;;;;5049193;28;20210;-46
2023/12/02 00:33:15;;;;;;;3.23;3.03;;;15.30;62.10;16.00;100043.00;;;;5042331;28;20170;-46
2023/12/02 00:35:41;;;;;;;3.43;3.13;;;15.20;62.00;16.00;100039.00;;;;5048997;28;20202;-45
2023/12/02 00:38:07;;;;;;;3.23;3.03;;;15.20;62.10;16.00;100026.00;;;;5048030;28;20190;-45
2023/12/02 00:40:32;;;;;;;3.60;3.30;;;15.20;62.90;16.00;100041.00;;;;5049047;28;20181;-45
2023/12/02 00:42:58;;;;;;;3.47;3.17;;;15.20;62.10;16.00;100045.00;;;;5048773;28;20185;-46
2023/12/02 00:45:24;;;;;;;3.17;2.93;;;15.20;62.30;15.90;100037.00;;;;5048943;28;20353;-46
2023/12/02 00:47:49;;;;;;;3.40;3.10;;;15.10;62.10;15.90;100047.00;;;;5048828;28;20216;-45
2023/12/02 00:50:16;;;;;;;3.60;3.30;;;15.10;62.10;15.90;100046.00;;;;5048891;28;20194;-46
2023/12/02 00:52:42;;;;;;;3.77;3.20;;;15.10;62.20;15.90;100046.00;;;;5049473;28;20678;-45
2023/12/02 00:55:08;;;;;;;3.03;2.83;;;15.00;62.20;15.90;100037.00;;;;5048698;28;20197;-45
2023/12/02 00:57:34;;;;;;;3.67;3.37;;;15.10;62.40;15.90;100034.00;;;;5049052;28;20183;-46
2023/12/02 00:59:59;;;;;;;3.20;3.00;;;15.10;62.50;15.80;100053.00;;;;5048803;28;20290;-46
2023/12/02 01:02:25;;;;;;;3.33;3.03;;;15.10;62.60;15.80;100043.00;;;;5047444;28;20214;-46
2023/12/02 01:04:51;;;;;;;3.50;3.20;;;15.10;62.70;15.80;100050.00;;;;5047559;28;20244;-46
2023/12/02 01:07:17;;;;;;;3.03;2.83;;;15.00;62.60;15.80;100038.00;;;;5047596;28;20185;-45
2023/12/02 01:09:42;;;;;;;3.20;3.00;;;15.00;62.60;15.80;100040.00;;;;5047421;28;20186;-46
2023/12/02 01:12:08;;;;;;;3.10;2.90;;;15.00;62.70;15.80;100039.00;;;;5047417;28;20178;-45
2023/12/02 01:14:34;;;;;;;3.30;3.00;;;15.00;62.70;15.80;100043.00;;;;5047590;28;20712;-46
2023/12/02 01:17:00;;;;;;;3.13;2.93;;;14.90;62.70;15.70;100047.00;;;;5047583;28;20209;-45
2023/12/02 01:19:26;;;;;;;3.07;2.87;;;14.90;62.70;15.70;100036.00;;;;5047697;28;20209;-46
2023/12/02 01:21:51;;;;;;;3.30;3.10;;;14.90;62.60;15.70;99963.00;;;;5047317;28;20213;-45
2023/12/02 01:24:17;;;;;;;3.40;3.10;;;14.90;62.60;15.70;100040.00;;;;5047363;28;20633;-44
2023/12/02 01:26:43;;;;;;;3.17;2.97;;;14.90;62.80;15.70;100044.00;;;;5047548;28;20186;-45
2023/12/02 01:29:09;;;;;;;3.30;3.00;;;14.80;62.80;15.60;100054.00;;;;5047511;28;21661;-45
2023/12/02 01:31:35;;;;;;;3.07;2.87;;;14.80;62.70;15.60;100065.00;;;;5047697;28;20232;-45
2023/12/02 01:34:00;;;;;;;3.40;3.10;;;14.80;62.70;15.60;100050.00;;;;5048458;28;20198;-46
2023/12/02 01:36:26;;;;;;;3.00;2.70;;;14.80;62.60;15.60;100054.00;;;;5053021;28;20187;-46
2023/12/02 01:38:52;;;;;;;3.20;3.00;;;14.80;62.60;15.60;100058.00;;;;5048464;28;20644;-45
2023/12/02 01:41:18;;;;;;;3.20;3.00;;;14.80;62.50;15.60;100057.00;;;;5047444;28;20183;-44
2023/12/02 01:43:44;;;;;;;6.77;3.20;;;14.80;63.20;15.60;100052.00;;;;5046468;28;20198;-43
2023/12/02 01:46:10;;;;;;;3.27;2.97;;;14.80;63.30;15.30;100053.00;;;;5042433;28;20190;-45
2023/12/02 01:48:36;;;;;;;3.40;3.10;;;14.80;63.00;15.50;100062.00;;;;5045251;28;20607;-45
2023/12/02 01:51:03;;;;;;;3.80;3.50;;;14.70;62.50;15.50;100064.00;;;;5048781;28;20202;-45
2023/12/02 01:53:28;;;;;;;3.67;3.37;;;14.70;62.00;15.50;100061.00;;;;5050123;28;20284;-44
2023/12/02 01:55:54;;;;;;;4.10;3.80;;;14.70;61.70;15.50;100073.00;;;;5049076;28;20254;-44
2023/12/02 01:58:20;;;;;;;5.33;3.87;;;14.70;61.30;15.40;100066.00;;;;5049294;28;20182;-43
2023/12/02 02:00:46;;;;;;;4.30;3.60;;;14.70;61.00;15.40;100062.00;;;;5048888;28;20186;-43
2023/12/02 02:03:12;;;;;;;4.07;3.77;;;14.70;60.70;15.50;100069.00;;;;5044023;28;20632;-44
2023/12/02 02:05:38;;;;;;;5.47;3.60;;;14.70;60.80;15.50;100066.00;;;;5050439;28;20182;-44
2023/12/02 02:08:04;;;;;;;3.40;3.10;;;14.60;60.90;15.40;100082.00;;;;5032442;28;20182;-43
2023/12/02 02:10:29;;;;;;;3.67;3.37;;;14.60;60.90;15.40;100078.00;;;;5050285;28;20299;-44
2023/12/02 02:12:55;;;;;;;3.57;3.27;;;14.60;60.90;15.40;100077.00;;;;5032117;28;20178;-45
2023/12/02 02:15:21;;;;;;;3.27;3.00;;;14.60;60.90;15.40;100075.00;;;;5050089;28;20285;-44
2023/12/02 02:17:46;;;;;;;3.30;3.00;;;14.60;60.90;15.40;100076.00;;;;5050171;28;20553;-44
2023/12/02 02:20:12;;;;;;;3.47;3.17;;;14.60;60.90;15.40;100090.00;;;;5050583;28;20208;-44
2023/12/02 02:22:38;;;;;;;3.33;3.03;;;14.60;60.90;15.40;100082.00;;;;5049206;28;20636;-45
2023/12/02 02:25:04;;;;;;;3.80;3.00;;;14.60;60.90;15.40;100082.00;;;;5049227;28;20782;-45
2023/12/02 02:27:31;;;;;;;3.47;3.17;;;14.50;60.90;15.40;100086.00;;;;5048802;28;20198;-44
2023/12/02 02:29:57;;;;;;;3.20;3.00;;;14.50;61.20;15.30;100081.00;;;;5048929;28;20271;-48
2023/12/02 02:32:23;;;;;;;3.30;3.00;;;14.50;61.10;15.30;100087.00;;;;5049382;28;20182;-43
2023/12/02 02:34:49;;;;;;;3.30;3.00;;;14.50;61.20;15.30;100080.00;;;;5049174;28;20228;-44
2023/12/02 02:37:14;;;;;;;3.37;3.07;;;14.50;61.20;15.30;100080.00;;;;5048703;28;20183;-44
2023/12/02 02:39:40;;;;;;;3.17;2.97;;;14.50;61.30;15.30;100073.00;;;;5050378;28;20260;-43
2023/12/02 02:42:06;;;;;;;3.33;2.70;;;14.40;61.20;15.30;100085.00;;;;5053064;28;20178;-44
2023/12/02 02:44:36;;;;;;;3.03;2.80;;;14.40;61.30;15.30;100089.00;;;;5058099;28;20487;-50
2023/12/02 02:47:02;;;;;;;2.90;2.70;;;14.40;61.30;15.20;100089.00;;;;5050873;28;20243;-44
2023/12/02 02:49:28;;;;;;;3.30;3.00;;;14.40;61.40;15.20;100081.00;;;;5049915;28;20232;-44
2023/12/02 02:51:54;;;;;;;3.10;2.90;;;14.40;61.40;15.20;100086.00;;;;5049532;28;20205;-44
2023/12/02 02:54:20;;;;;;;3.10;2.80;;;14.40;61.40;15.20;100084.00;;;;5040988;28;20672;-43
2023/12/02 02:56:45;;;;;;;2.80;2.60;;;14.30;61.50;15.20;100089.00;;;;5049603;28;20182;-43
2023/12/02 02:59:11;;;;;;;2.87;2.67;;;14.30;61.50;15.20;100076.00;;;;5047844;28;20532;-45
2023/12/02 03:01:39;;;;;;;3.00;2.80;;;14.30;61.50;15.20;100080.00;;;;5048503;28;20201;-44
2023/12/02 03:04:04;;;;;;;3.10;2.90;;;14.30;61.10;15.20;100089.00;;;;5047632;28;20202;-44
2023/12/02 03:06:30;;;;;;;2.90;2.70;;;14.30;60.90;15.20;100080.00;;;;5043926;28;20262;-44
2023/12/02 03:08:56;;;;;;;2.93;2.73;;;14.40;60.70;15.20;100090.00;;;;5042695;28;20182;-44
2023/12/02 03:11:22;;;;;;;3.20;2.87;;;14.30;61.90;15.20;100090.00;;;;5049520;28;20203;-44
2023/12/02 03:13:47;;;;;;;2.90;2.70;;;14.30;61.00;15.20;100092.00;;;;5043700;28;20742;-43
2023/12/02 03:16:13;;;;;;;3.07;2.77;;;14.30;61.20;15.20;100092.00;;;;5047803;28;20186;-44
2023/12/02 03:18:39;;;;;;;2.93;2.73;;;14.30;61.30;15.10;100097.00;;;;5049498;28;20178;-43
2023/12/02 03:21:05;;;;;;;2.87;2.67;;;14.20;61.20;15.10;100104.00;;;;5048904;28;20186;-43
2023/12/02 03:23:30;;;;;;;2.93;2.73;;;14.20;61.20;15.10;100096.00;;;;5049038;28;20201;-43
2023/12/02 03:25:56;;;;;;;2.70;2.50;;;14.20;61.50;15.10;100100.00;;;;5048878;28;20189;-43
2023/12/02 03:28:23;;;;;;;3.03;2.70;;;14.20;61.30;15.10;100101.00;;;;5049131;28;20189;-43
2023/12/02 03:30:49;;;;;;;2.77;2.57;;;14.20;61.40;15.10;100110.00;;;;5049075;28;20198;-43
2023/12/02 03:33:15;;;;;;;2.80;2.60;;;14.20;61.30;15.10;100091.00;;;;5041554;28;20185;-43
2023/12/02 03:35:41;;;;;;;2.80;2.60;;;14.20;61.10;15.10;100098.00;;;;5048899;28;20197;-43
2023/12/02 03:38:07;;;;;;;2.70;2.50;;;14.10;61.00;15.00;100108.00;;;;5048849;28;20186;-44
2023/12/02 03:40:32;;;;;;;2.90;2.70;;;14.20;61.30;15.00;100097.00;;;;5048800;28;20236;-43
2023/12/02 03:42:58;;;;;;;2.70;2.50;;;14.20;61.30;15.00;100098.00;;;;5048358;28;20182;-43
2023/12/02 03:45:26;;;;;;;2.90;2.70;;;14.20;61.10;15.00;100098.00;;;;5048754;28;20213;-44
2023/12/02 03:47:51;;;;;;;2.60;2.40;;;14.10;61.10;15.00;100099.00;;;;5048782;28;20186;-43
2023/12/02 03:50:18;;;;;;;2.80;2.60;;;14.10;61.20;15.00;100095.00;;;;5054406;28;20217;-48
2023/12/02 03:52:44;;;;;;;2.70;2.50;;;14.10;61.30;15.00;100104.00;;;;5054266;28;20269;-43
2023/12/02 03:55:10;;;;;;;2.67;2.47;;;14.10;61.30;15.00;100100.00;;;;5048267;28;20289;-43
2023/12/02 03:57:36;;;;;;;2.53;2.33;;;14.10;61.00;15.00;100105.00;;;;5047036;28;20645;-43
2023/12/02 04:00:10;;;;;;;2.90;2.70;;;14.10;61.10;15.00;100110.00;;;;5048296;28;20189;-43
2023/12/02 04:02:38;;;;;;;2.80;2.60;;;14.10;61.10;15.00;100107.00;;;;5044533;28;20197;-43
2023/12/02 04:05:10;;;;;;;2.87;2.67;;;14.00;60.90;14.90;100111.00;;;;5049692;28;20545;-43
2023/12/02 04:07:37;;;;;;;2.60;2.40;;;14.10;61.10;14.90;100111.00;;;;5049722;28;20344;-44
2023/12/02 04:10:03;;;;;;;2.77;2.57;;;14.10;61.10;14.90;100126.00;;;;5050280;28;20695;-43
2023/12/02 04:12:30;;;;;;;3.93;2.73;;;14.00;61.20;14.90;100123.00;;;;5049320;28;20335;-44
2023/12/02 04:14:56;;;;;;;2.87;2.67;;;14.10;61.30;14.90;100129.00;;;;5048107;28;20202;-43
2023/12/02 04:17:22;;;;;;;2.63;2.43;;;14.00;61.30;14.90;100128.00;;;;5049544;28;20182;-43
2023/12/02 04:19:47;;;;;;;2.70;2.50;;;14.00;61.70;14.90;100129.00;;;;5048032;28;20177;-44
2023/12/02 04:22:14;;;;;;;2.60;2.40;;;14.00;61.60;14.90;100130.00;;;;5049158;28;20205;-44
2023/12/02 04:24:40;;;;;;;3.13;2.83;;;14.00;61.60;14.90;100129.00;;;;5049321;28;20190;-44
2023/12/02 04:27:07;;;;;;;2.87;2.40;;;14.00;61.50;14.90;100131.00;;;;5049047;28;20570;-44
2023/12/02 04:29:36;;;;;;;3.10;2.67;;;13.90;61.50;14.80;100136.00;;;;5048075;28;20210;-44
2023/12/02 04:32:03;;;;;;;5.23;2.63;;;13.90;62.10;14.80;100141.00;;;;5048783;28;20186;-44
2023/12/02 04:34:30;;;;;;;2.73;2.53;;;13.90;62.30;14.80;100147.00;;;;5041814;28;20198;-45
2023/12/02 04:36:56;;;;;;;4.97;2.47;;;13.90;61.70;14.80;100148.00;;;;5048976;28;20660;-45
2023/12/02 04:39:22;;;;;;;2.93;2.50;;;13.90;61.50;14.80;100147.00;;;;5051780;28;20170;-45
2023/12/02 04:41:47;;;;;;;2.60;2.40;;;13.90;61.60;14.80;100142.00;;;;5045629;28;20218;-45
2023/12/02 04:44:13;;;;;;;3.23;2.40;;;13.90;61.60;14.80;100145.00;;;;5041488;28;20221;-45
2023/12/02 04:46:42;;;;;;;3.30;2.50;;;13.80;61.60;14.80;100161.00;;;;5048160;28;20186;-45
2023/12/02 04:49:07;;;;;;;2.53;2.33;;;13.80;61.60;14.70;100163.00;;;;5048683;28;20189;-44
2023/12/02 04:51:33;;;;;;;4.50;2.70;;;13.80;61.60;14.70;100158.00;;;;5048751;28;20205;-44
2023/12/02 04:53:59;;;;;;;2.70;2.50;;;13.80;61.70;14.70;100171.00;;;;5047201;28;20225;-44
2023/12/02 04:56:25;;;;;;;2.83;2.63;;;13.80;61.70;14.70;100167.00;;;;5048428;28;20181;-48
2023/12/02 04:58:51;;;;;;;2.60;2.40;;;13.80;61.70;14.70;100163.00;;;;5048360;28;20253;-44
2023/12/02 05:01:16;;;;;;;2.50;2.30;;;13.70;61.60;14.70;100176.00;;;;5048707;28;20767;-44
2023/12/02 05:03:42;;;;;;;2.90;2.70;;;13.80;61.70;14.60;100175.00;;;;5042355;28;20210;-44
2023/12/02 05:06:13;;;;;;;5.00;2.73;;;13.70;61.60;14.60;100161.00;;;;5048081;28;20187;-44
2023/12/02 05:08:38;;;;;;;2.40;2.20;;;13.70;61.60;14.60;100099.00;;;;5047136;28;20250;-44
2023/12/02 05:11:05;;;;;;;2.97;2.60;;;13.70;61.60;14.60;100181.00;;;;5046900;28;20235;-45
2023/12/02 05:13:31;;;;;;;2.63;2.43;;;13.70;61.60;14.60;100187.00;;;;5048003;28;20213;-45
2023/12/02 05:15:56;;;;;;;4.47;2.50;;;13.70;61.70;14.60;100188.00;;;;5048036;28;20182;-44
2023/12/02 05:18:22;;;;;;;3.13;2.50;;;13.60;62.40;14.60;100193.00;;;;5047870;28;20178;-45
2023/12/02 05:20:48;;;;;;;3.07;2.73;;;13.60;61.60;14.50;100192.00;;;;5047631;28;20186;-45
2023/12/02 05:23:13;;;;;;;4.47;2.77;;;13.60;61.50;14.50;100193.00;;;;5046935;28;20197;-45
2023/12/02 05:25:39;;;;;;;3.00;2.70;;;13.60;61.40;14.50;100189.00;;;;5050916;28;20602;-45
2023/12/02 05:28:05;;;;;;;6.17;2.80;;;13.50;61.30;14.50;100194.00;;;;5051415;28;20236;-45
2023/12/02 05:30:33;;;;;;;3.97;3.07;;;13.50;61.30;14.30;100201.00;;;;5052802;28;20234;-45
2023/12/02 05:32:59;;;;;;;4.83;3.37;;;13.50;61.10;14.40;100211.00;;;;5046017;28;20183;-45
2023/12/02 05:35:24;;;;;;;3.83;3.17;;;13.40;60.80;14.40;100213.00;;;;5052019;28;20255;-45
2023/12/02 05:37:50;;;;;;;4.80;3.60;;;13.40;60.70;14.40;100211.00;;;;5050497;28;20178;-45
2023/12/02 05:40:17;;;;;;;7.07;3.63;;;13.40;60.50;14.40;100207.00;;;;5050632;28;20212;-45
2023/12/02 05:42:42;;;;;;;7.10;3.87;;;13.40;60.40;14.30;100205.00;;;;5051575;28;20186;-44
2023/12/02 05:45:09;;;;;;;9.37;4.07;;;13.40;60.30;14.30;100209.00;;;;5051586;28;20202;-44
2023/12/02 05:47:34;;;;;;;9.17;4.10;;;13.30;60.20;14.30;100221.00;;;;5051310;28;20231;-43
2023/12/02 05:50:01;;;;;;;7.10;4.33;;;13.30;60.10;14.30;100214.00;;;;5051544;28;20214;-44
2023/12/02 05:52:26;;;;;;;8.80;4.60;;;13.30;60.00;14.20;100211.00;;;;5051573;28;20211;-43
2023/12/02 05:54:52;;;;;;;12.23;4.30;;;13.30;60.00;14.20;100227.00;;;;5051406;28;20605;-44
2023/12/02 05:57:18;;;;;;;9.97;4.53;;;13.30;59.90;14.20;100218.00;;;;5050981;28;20755;-44
2023/12/02 05:59:44;;;;;;;7.53;4.90;;;13.20;59.80;14.20;100229.00;;;;5051732;28;20182;-44
2023/12/02 06:02:09;;;;;;;7.30;4.07;;;13.20;59.60;14.20;100220.00;;;;5050578;28;20202;-43
2023/12/02 06:04:35;;;;;;;5.97;4.00;;;13.20;59.60;14.10;100227.00;;;;5046842;28;20198;-44
2023/12/02 06:07:01;;;;;;;6.23;4.13;;;13.20;59.60;14.10;100222.00;;;;5051652;28;20178;-44
2023/12/02 06:09:27;;;;;;;5.57;4.63;;;13.10;59.40;14.10;100221.00;;;;5052163;28;20182;-48
2023/12/02 06:11:53;;;;;;;8.57;4.60;;;13.10;59.30;14.10;100224.00;;;;5050884;28;20206;-44
2023/12/02 06:14:18;;;;;;;9.47;4.40;;;13.10;59.30;14.00;100226.00;;;;5051007;28;20190;-44
2023/12/02 06:16:44;;;;;;;5.17;4.67;;;13.10;59.20;14.00;100227.00;;;;5050904;28;20671;-44
2023/12/02 06:19:11;;;;;;;5.13;4.60;;;13.00;59.10;14.00;100226.00;;;;5050921;28;20257;-44
2023/12/02 06:21:37;;;;;;;7.23;4.77;;;13.00;58.90;14.00;100230.00;;;;5051121;28;20569;-43
2023/12/02 06:24:04;;;;;;;9.20;4.70;;;13.00;58.90;14.00;100226.00;;;;5050729;28;20206;-44
2023/12/02 06:26:29;;;;;;;5.37;4.87;;;13.00;59.00;14.00;100239.00;;;;5050490;28;20179;-44
2023/12/02 06:28:55;;;;;;;9.60;5.80;;;13.00;58.90;13.90;100238.00;;;;5050780;28;20189;-44
2023/12/02 06:31:21;;;;;;;5.23;4.53;;;13.00;59.20;13.90;100235.00;;;;5050826;28;20289;-44
2023/12/02 06:33:46;;;;;;;5.30;4.80;;;13.00;59.10;13.90;100249.00;;;;5046839;28;20287;-44
2023/12/02 06:36:12;;;;;;;4.90;4.40;;;13.00;59.20;13.90;100250.00;;;;5050265;28;20178;-44
2023/12/02 06:38:38;;;;;;;4.73;4.30;;;13.00;59.40;13.90;100228.00;;;;5049133;28;20194;-44
2023/12/02 06:41:04;;;;;;;4.80;4.07;;;13.00;59.40;13.90;100252.00;;;;5049157;28;20182;-44
2023/12/02 06:43:30;;;;;;;6.23;4.33;;;13.00;59.40;13.90;100257.00;;;;5050297;28;20745;-44
2023/12/02 06:45:56;;;;;;;4.37;3.97;;;13.00;59.40;13.90;100256.00;;;;5050349;28;20273;-44
2023/12/02 06:48:21;;;;;;;4.13;3.73;;;13.00;59.40;13.80;100255.00;;;;5043212;28;20679;-44
2023/12/02 06:50:47;;;;;;;5.93;4.10;;;13.00;59.60;13.80;100260.00;;;;5050535;28;20198;-44
2023/12/02 06:53:15;;;;;;;4.10;3.70;;;12.90;59.60;13.80;100272.00;;;;5050146;28;20202;-44
2023/12/02 06:55:42;;;;;;;4.20;3.73;;;12.90;59.60;13.80;100273.00;;;;5050043;28;20667;-44
2023/12/02 06:58:08;;;;;;;4.10;3.80;;;12.90;59.60;13.80;100289.00;;;;5049998;28;20270;-44
2023/12/02 07:00:34;;;;;;;4.07;3.50;;;12.90;60.00;13.80;100197.00;;;;5050565;28;20261;-43
2023/12/02 07:03:00;;;;;;;3.97;3.57;;;12.90;60.10;13.80;100286.00;;;;5050192;28;20201;-44
2023/12/02 07:05:26;;;;;;;4.43;3.63;;;12.90;60.20;13.80;100295.00;;;;5050300;28;20672;-44
2023/12/02 07:07:52;;;;;;;3.93;3.50;;;12.90;60.10;13.80;100300.00;;;;5046093;28;20210;-45
2023/12/02 07:10:18;;;;;;;4.63;3.70;;;12.80;60.10;13.80;100290.00;;;;5045346;28;20236;-44
2023/12/02 07:12:44;;;;;;;4.00;3.60;;;12.80;60.20;13.70;100299.00;;;;5048624;28;20263;-44
2023/12/02 07:15:11;;;;;;;3.87;3.27;;;12.80;60.20;13.70;100314.00;;;;5050044;28;20208;-44
2023/12/02 07:17:36;;;;;;;5.70;3.20;;;12.80;60.40;13.70;100319.00;;;;5049448;28;20592;-45
2023/12/02 07:20:03;;;;;;;3.40;3.10;;;12.80;60.30;13.70;100321.00;;;;5048177;28;20186;-44
2023/12/02 07:22:28;;;;;;;3.60;3.30;;;12.80;60.40;13.70;100326.00;;;;5049866;28;20198;-44
2023/12/02 07:24:54;;;;;;;3.80;3.27;;;12.80;60.50;13.70;100320.00;;;;5046024;28;20734;-44
2023/12/02 07:27:20;;;;;;;3.43;3.13;;;12.80;60.60;13.70;100337.00;;;;5049023;28;20174;-44
2023/12/02 07:29:45;;;;;;;3.40;3.10;;;12.80;60.60;13.70;100325.00;;;;5049683;28;20209;-44
2023/12/02 07:32:11;;;;;;;3.70;3.00;;;12.80;60.50;13.70;100335.00;;;;5048261;28;20253;-45
2023/12/02 07:34:37;;;;;;;3.40;3.10;;;12.80;60.50;13.60;100332.00;;;;5044483;28;20213;-45
2023/12/02 07:37:03;;;;;;;3.53;3.23;;;12.70;60.60;13.60;100339.00;;;;5048700;28;20183;-44
2023/12/02 07:39:29;;;;;;;3.50;3.20;;;12.70;60.50;13.60;100332.00;;;;5049384;28;20563;-43
2023/12/02 07:41:54;;;;;;;3.40;3.10;;;12.70;60.50;13.60;100343.00;;;;5048728;28;20202;-44
2023/12/02 07:44:20;;;;;;;3.20;3.00;;;12.70;60.50;13.60;100347.00;;;;5052932;28;20749;-43
2023/12/02 07:46:46;;;;;;;3.30;3.00;;;12.70;60.60;13.60;100354.00;;;;5051951;28;20210;-43
2023/12/02 07:49:12;;;;;;;5.17;3.30;;;12.70;60.50;13.60;100348.00;;;;5049535;28;20229;-45
2023/12/02 07:51:37;;;;;;;3.30;3.00;;;12.70;60.70;13.60;100351.00;;;;5049450;28;20915;-44
2023/12/02 07:54:03;;;;;;;3.20;2.90;;;12.70;60.80;13.50;100345.00;;;;5049043;28;20206;-43
2023/12/02 07:56:29;;;;;;;3.47;3.17;;;12.70;60.80;13.60;100354.00;;;;5049099;28;20181;-49
2023/12/02 07:58:55;;;;;;;3.50;3.20;;;12.60;60.60;13.50;100361.00;;;;5044097;28;20174;-44
2023/12/02 08:01:21;;;;;;;4.53;3.10;;;12.70;60.60;13.50;100353.00;;;;5049146;28;20556;-44
2023/12/02 08:03:47;;;;;;;3.60;3.20;;;12.70;60.60;13.50;100351.00;;;;5040435;28;20198;-44
2023/12/02 08:06:13;;;;;;;3.53;3.23;;;12.70;60.70;13.50;100356.00;;;;5048558;28;20180;-45
2023/12/02 08:08:39;;;;;;;3.27;2.97;;;12.70;60.70;13.50;100353.00;;;;5047623;28;20603;-44
2023/12/02 08:11:05;;;;;;;3.97;2.80;;;12.70;60.70;13.50;100367.00;;;;5048603;28;20206;-44
2023/12/02 08:13:31;;;;;;;3.40;3.10;;;12.60;61.10;13.50;100367.00;;;;5047537;28;20684;-44
2023/12/02 08:15:57;;;;;;;3.00;2.80;;;12.60;61.10;13.50;100367.00;;;;5048838;28;20174;-44
2023/12/02 08:18:23;;;;;;;4.53;3.10;;;12.70;61.00;13.50;100373.00;;;;5048817;28;20189;-44
2023/12/02 08:20:49;;;;;;;3.23;2.73;;;12.60;61.00;13.50;100362.00;;;;5049196;28;20175;-44
2023/12/02 08:23:15;;;;;;;6.80;3.13;;;12.70;61.60;13.50;100375.00;;;;5047664;28;20186;-44
2023/12/02 08:25:41;;;;;;;3.87;3.10;;;12.70;61.40;13.50;100374.00;;;;5048537;28;20671;-44
2023/12/02 08:28:07;;;;;;;3.83;3.20;;;12.70;61.60;13.60;100386.00;;;;5049705;28;20189;-45
2023/12/02 08:30:32;;;;;;;4.20;3.10;;;12.80;62.00;13.60;100380.00;;;;5049393;28;20202;-45
2023/12/02 08:32:58;;;;;;;3.37;2.97;;;12.80;61.90;13.60;100389.00;;;;5048551;28;20656;-45
2023/12/02 08:35:24;;;;;;;3.80;2.97;;;12.90;61.80;13.70;100379.00;;;;5048499;28;20676;-44
2023/12/02 08:37:49;;;;;;;3.40;2.63;;;13.00;61.90;13.80;100400.00;;;;5047140;28;20177;-44
2023/12/02 08:40:15;;;;;;;4.20;2.80;;;13.10;61.70;13.80;100392.00;;;;5042655;28;20236;-43
2023/12/02 08:42:41;;;;;;;3.43;3.13;;;13.20;61.60;13.90;100407.00;;;;5039023;28;20191;-44
2023/12/02 08:45:07;;;;;;;3.10;2.90;;;13.40;61.40;14.00;100404.00;;;;5047894;28;20700;-43
2023/12/02 08:47:33;;;;;;;3.10;2.80;;;13.50;61.20;14.10;100418.00;;;;5047046;28;20575;-44
2023/12/02 08:49:59;;;;;;;3.30;3.00;;;13.70;61.00;14.20;100422.00;;;;5045130;28;20183;-45
2023/12/02 08:52:24;;;;;;;3.43;2.90;;;13.80;60.80;14.30;100426.00;;;;5044579;28;20178;-43
2023/12/02 08:54:50;;;;;;;2.93;2.63;;;14.00;60.60;14.40;100423.00;;;;5041537;28;20198;-43
2023/12/02 08:57:16;;;;;;;3.03;2.73;;;14.20;60.50;14.60;100434.00;;;;5046031;28;20174;-43
2023/12/02 08:59:41;;;;;;;3.30;2.60;;;14.30;60.20;14.70;100432.00;;;;5051590;28;20174;-44
2023/12/02 09:02:08;;;;;;;3.00;2.70;;;14.40;60.10;14.80;100442.00;;;;5051238;28;20682;-43
2023/12/02 09:04:34;;;;;;;3.70;2.60;;;14.60;59.80;14.90;100430.00;;;;5052311;28;20233;-45
2023/12/02 09:06:59;;;;;;;3.43;2.90;;;14.70;60.00;15.00;100442.00;;;;5033995;28;20201;-44
2023/12/02 09:09:25;;;;;;;3.27;2.60;;;14.80;59.80;15.10;100437.00;;;;5052281;28;20269;-43
2023/12/02 09:11:51;;;;;;;3.30;2.80;;;15.00;60.10;15.30;100442.00;;;;5052022;28;20206;-44
2023/12/02 09:14:17;;;;;;;5.30;2.83;;;15.00;60.00;15.40;100440.00;;;;5051990;28;20194;-43
2023/12/02 09:16:46;;;;;;;5.60;2.60;;;15.10;59.90;15.50;100439.00;;;;5050376;28;20263;-42
2023/12/02 09:19:53;;;;;;;6.10;2.67;;;15.20;60.10;15.60;100445.00;;;;5051992;28;20193;-45
2023/12/02 09:22:48;;;;;;;7.97;3.10;;;15.40;60.00;15.70;100438.00;;;;5049418;28;20520;-45
2023/12/02 09:25:31;;;;;;;4.20;2.70;;;15.30;60.40;15.80;100442.00;;;;5050674;28;20186;-43
2023/12/02 09:28:05;;;;;;;5.77;2.90;;;15.60;60.30;15.90;100458.00;;;;5050984;28;20201;-45
2023/12/02 09:30:42;;;;;;;3.17;2.70;;;15.70;60.20;16.00;100442.00;;;;5046551;28;20201;-44
2023/12/02 09:33:08;;;;;;;3.93;2.80;;;15.80;60.30;16.00;100437.00;;;;5050394;28;20185;-44
2023/12/02 09:35:34;;;;;;;3.13;2.60;;;15.90;60.10;16.20;100449.00;;;;5050607;28;20256;-43
2023/12/02 09:38:00;;;;;;;3.40;2.80;;;16.00;60.90;16.20;100448.00;;;;5051532;28;20205;-44
2023/12/02 09:40:37;;;;;;;3.60;2.80;;;16.00;61.10;16.30;100435.00;;;;5050009;28;20170;-44
2023/12/02 09:43:47;;;;;;;3.53;2.70;;;16.10;60.90;16.40;100443.00;;;;5050994;28;20740;-43
2023/12/02 09:46:37;;;;;;;3.17;2.73;;;16.10;60.90;16.40;100439.00;;;;5003248;28;20333;-45
2023/12/02 09:49:06;;;;;;;3.60;3.00;;;16.20;60.90;16.50;100442.00;;;;5050303;28;20225;-44
2023/12/02 09:51:51;;;;;;;2.70;2.43;;;16.10;60.90;16.50;100443.00;;;;5051750;28;20221;-43
2023/12/02 09:54:31;;;;;;;4.30;2.60;;;16.20;60.80;16.60;100460.00;;;;5049520;28;20280;-44
2023/12/02 09:57:05;;;;;;;4.23;2.67;;;16.30;60.70;16.60;100460.00;;;;5050204;28;20694;-44
2023/12/02 10:00:05;;;;;;;3.80;2.60;;;16.30;60.70;16.70;100449.00;;;;5044913;28;20232;-44
2023/12/02 10:02:51;;;;;;;3.13;2.70;;;16.30;60.70;16.70;100467.00;;;;5049746;28;20225;-44
2023/12/02 10:05:17;;;;;;;3.20;2.90;;;16.30;60.80;16.70;100471.00;;;;5048017;28;20204;-44
2023/12/02 10:08:34;;;;;;;2.93;2.63;;;16.30;60.70;16.80;100463.00;;;;5050055;28;20182;-44
2023/12/02 10:11:07;;;;;;;8.93;3.00;;;16.30;60.70;16.80;100469.00;;;;5046618;28;20846;-45
2023/12/02 10:14:12;;;;;;;3.20;2.90;;;16.30;61.10;16.80;100464.00;;;;5049953;28;20199;-44
2023/12/02 10:16:41;;;;;;;3.73;2.60;;;16.30;61.00;16.80;100476.00;;;;5008942;28;20238;-45
2023/12/02 10:19:17;;;;;;;3.13;2.70;;;16.30;60.70;16.80;100461.00;;;;5042177;28;20793;-44
2023/12/02 10:21:45;;;;;;;4.80;2.80;;;16.40;60.60;16.80;100468.00;;;;5050019;28;20181;-44
2023/12/02 10:24:11;;;;;;;4.40;2.80;;;16.40;60.50;16.60;100470.00;;;;5033527;28;20440;-44
2023/12/02 10:27:03;;;;;;;4.90;2.83;;;16.40;60.60;16.90;100473.00;;;;5051298;28;20184;-45
2023/12/02 10:29:41;;;;;;;3.07;2.80;;;16.40;60.60;16.90;100460.00;;;;5039968;28;20275;-44
2023/12/02 10:32:42;;;;;;;3.40;2.73;;;16.40;60.40;16.90;100465.00;;;;5033932;28;20222;-45
2023/12/02 10:35:15;;;;;;;3.67;2.53;;;16.40;60.20;16.90;100460.00;;;;5049850;28;20196;-44
2023/12/02 10:37:42;;;;;;;3.10;2.80;;;16.40;60.20;17.00;100459.00;;;;5051344;28;20648;-45
2023/12/02 10:40:09;;;;;;;4.07;2.60;;;16.40;60.20;17.00;100473.00;;;;5050960;28;20175;-45
2023/12/02 10:43:05;;;;;;;3.47;2.73;;;16.40;60.20;17.00;100466.00;;;;5050819;28;20180;-44
2023/12/02 10:45:31;;;;;;;3.50;2.50;;;16.30;60.20;16.90;100460.00;;;;5044006;28;20203;-43
2023/12/02 10:47:58;;;;;;;3.57;2.73;;;16.30;60.30;16.90;100461.00;;;;5049647;28;20190;-44
2023/12/02 10:50:25;;;;;;;4.33;2.93;;;16.40;60.50;17.00;100461.00;;;;5046307;28;20293;-45